sensor_id;sensor_type;location;lat;lon;timestamp;pressure;altitude;pressure_sealevel;temperature;humidity
75414;BME280;64758;52.122;5.404;2023-02-15T00:01:10;103224.00;;;0.46;99.67
75414;BME280;64758;52.122;5.404;2023-02-15T00:03:37;103214.25;;;0.50;100.00
75414;BME280;64758;52.122;5.404;2023-02-15T00:06:04;103209.03;;;0.50;100.00
75414;BME280;64758;52.122;5.404;2023-02-15T00:08:31;103203.22;;;0.43;99.82
75414;BME280;64758;52.122;5.404;2023-02-15T00:11:11;103200.78;;;0.39;100.00
75414;BME280;64758;52.122;5.404;2023-02-15T00:13:38;103200.66;;;0.42;100.00
75414;BME280;64758;52.122;5.404;2023-02-15T00:16:10;103202.44;;;0.41;99.81
75414;BME280;64758;52.122;5.404;2023-02-15T00:18:39;103200.75;;;0.40;99.92
75414;BME280;64758;52.122;5.404;2023-02-15T00:21:08;103201.84;;;0.35;99.92
75414;BME280;64758;52.122;5.404;2023-02-15T00:23:35;103194.06;;;0.33;99.44
75414;BME280;64758;52.122;5.404;2023-02-15T00:26:10;103199.59;;;0.26;99.87
75414;BME280;64758;52.122;5.404;2023-02-15T00:28:38;103193.53;;;0.25;99.79
75414;BME280;64758;52.122;5.404;2023-02-15T00:31:08;103200.47;;;0.26;100.00
75414;BME280;64758;52.122;5.404;2023-02-15T00:33:37;103200.34;;;0.29;100.00
75414;BME280;64758;52.122;5.404;2023-02-15T00:36:05;103199.47;;;0.29;100.00
75414;BME280;64758;52.122;5.404;2023-02-15T00:38:33;103189.94;;;0.28;99.90
75414;BME280;64758;52.122;5.404;2023-02-15T00:41:01;103187.53;;;0.23;99.70
75414;BME280;64758;52.122;5.404;2023-02-15T00:43:30;103183.34;;;0.19;100.00
75414;BME280;64758;52.122;5.404;2023-02-15T00:45:57;103184.16;;;0.20;100.00
75414;BME280;64758;52.122;5.404;2023-02-15T00:48:25;103175.53;;;0.18;99.58
75414;BME280;64758;52.122;5.404;2023-02-15T00:50:54;103180.84;;;0.16;100.00
75414;BME280;64758;52.122;5.404;2023-02-15T00:53:21;103179.94;;;0.17;99.96
75414;BME280;64758;52.122;5.404;2023-02-15T00:55:47;103181.81;;;0.14;99.84
75414;BME280;64758;52.122;5.404;2023-02-15T00:58:14;103178.47;;;0.10;99.79
75414;BME280;64758;52.122;5.404;2023-02-15T01:00:43;103171.69;;;0.06;100.00
75414;BME280;64758;52.122;5.404;2023-02-15T01:03:11;103171.94;;;0.00;100.00
75414;BME280;64758;52.122;5.404;2023-02-15T01:05:38;103179.66;;;0.03;100.00
75414;BME280;64758;52.122;5.404;2023-02-15T01:08:04;103178.72;;;0.04;100.00
75414;BME280;64758;52.122;5.404;2023-02-15T01:10:31;103167.50;;;0.02;100.00
75414;BME280;64758;52.122;5.404;2023-02-15T01:12:58;103179.69;;;0.02;100.00
75414;BME280;64758;52.122;5.404;2023-02-15T01:15:24;103184.88;;;0.03;100.00
75414;BME280;64758;52.122;5.404;2023-02-15T01:17:51;103176.44;;;-0.03;100.00
75414;BME280;64758;52.122;5.404;2023-02-15T01:20:21;103175.59;;;-0.03;100.00
75414;BME280;64758;52.122;5.404;2023-02-15T01:22:48;103174.75;;;-0.04;100.00
75414;BME280;64758;52.122;5.404;2023-02-15T01:25:17;103171.22;;;-0.03;100.00
75414;BME280;64758;52.122;5.404;2023-02-15T01:27:43;103162.78;;;-0.09;100.00
75414;BME280;64758;52.122;5.404;2023-02-15T01:30:10;103158.34;;;-0.07;100.00
75414;BME280;64758;52.122;5.404;2023-02-15T01:32:37;103156.88;;;-0.14;100.00
75414;BME280;64758;52.122;5.404;2023-02-15T01:35:04;103156.16;;;-0.18;100.00
75414;BME280;64758;52.122;5.404;2023-02-15T01:37:31;103148.38;;;-0.19;100.00
75414;BME280;64758;52.122;5.404;2023-02-15T01:39:58;103144.81;;;-0.17;100.00
75414;BME280;64758;52.122;5.404;2023-02-15T01:42:27;103144.84;;;-0.18;100.00
75414;BME280;64758;52.122;5.404;2023-02-15T01:49:57;103128.16;;;-0.14;100.00
75414;BME280;64758;52.122;5.404;2023-02-15T01:52:25;103130.06;;;-0.18;100.00
75414;BME280;64758;52.122;5.404;2023-02-15T01:54:52;103124.88;;;-0.19;100.00
75414;BME280;64758;52.122;5.404;2023-02-15T01:57:22;103129.19;;;-0.18;100.00
75414;BME280;64758;52.122;5.404;2023-02-15T01:59:54;103132.66;;;-0.18;100.00
75414;BME280;64758;52.122;5.404;2023-02-15T02:02:22;103135.28;;;-0.18;100.00
75414;BME280;64758;52.122;5.404;2023-02-15T02:04:52;103135.41;;;-0.21;100.00
75414;BME280;64758;52.122;5.404;2023-02-15T02:07:20;103127.63;;;-0.22;100.00
75414;BME280;64758;52.122;5.404;2023-02-15T02:09:48;103131.13;;;-0.23;100.00
75414;BME280;64758;52.122;5.404;2023-02-15T02:12:16;103133.88;;;-0.26;100.00
75414;BME280;64758;52.122;5.404;2023-02-15T02:14:44;103132.38;;;-0.32;100.00
75414;BME280;64758;52.122;5.404;2023-02-15T02:20:15;103116.63;;;-0.30;100.00
75414;BME280;64758;52.122;5.404;2023-02-15T02:31:00;103104.28;;;-0.47;100.00
75414;BME280;64758;52.122;5.404;2023-02-15T02:33:52;103108.44;;;-0.43;100.00
75414;BME280;64758;52.122;5.404;2023-02-15T02:36:48;103108.50;;;-0.44;100.00
75414;BME280;64758;52.122;5.404;2023-02-15T02:39:38;103104.19;;;-0.45;100.00
75414;BME280;64758;52.122;5.404;2023-02-15T02:42:14;103099.09;;;-0.48;100.00
75414;BME280;64758;52.122;5.404;2023-02-15T02:44:54;103100.91;;;-0.50;100.00
75414;BME280;64758;52.122;5.404;2023-02-15T02:47:29;103083.56;;;-0.51;100.00
75414;BME280;64758;52.122;5.404;2023-02-15T02:50:03;103080.03;;;-0.50;100.00
75414;BME280;64758;52.122;5.404;2023-02-15T02:58:15;103078.41;;;-0.53;100.00
75414;BME280;64758;52.122;5.404;2023-02-15T03:03:21;103070.50;;;-0.51;100.00
75414;BME280;64758;52.122;5.404;2023-02-15T03:05:53;103075.69;;;-0.50;100.00
75414;BME280;64758;52.122;5.404;2023-02-15T03:08:22;103059.28;;;-0.53;100.00
75414;BME280;64758;52.122;5.404;2023-02-15T03:10:57;103066.31;;;-0.55;100.00
75414;BME280;64758;52.122;5.404;2023-02-15T03:13:26;103066.28;;;-0.54;100.00
75414;BME280;64758;52.122;5.404;2023-02-15T03:15:54;103061.22;;;-0.58;100.00
75414;BME280;64758;52.122;5.404;2023-02-15T03:18:49;103050.00;;;-0.60;100.00
75414;BME280;64758;52.122;5.404;2023-02-15T03:21:30;103048.38;;;-0.63;100.00
75414;BME280;64758;52.122;5.404;2023-02-15T03:24:12;103050.13;;;-0.63;100.00
75414;BME280;64758;52.122;5.404;2023-02-15T03:26:44;103055.34;;;-0.63;100.00
75414;BME280;64758;52.122;5.404;2023-02-15T03:29:12;103042.50;;;-0.68;100.00
75414;BME280;64758;52.122;5.404;2023-02-15T03:31:43;103043.31;;;-0.67;100.00
75414;BME280;64758;52.122;5.404;2023-02-15T03:34:14;103053.75;;;-0.67;100.00
75414;BME280;64758;52.122;5.404;2023-02-15T03:36:50;103044.13;;;-0.65;100.00
75414;BME280;64758;52.122;5.404;2023-02-15T03:44:51;103041.75;;;-0.71;100.00
75414;BME280;64758;52.122;5.404;2023-02-15T03:47:58;103043.56;;;-0.73;100.00
75414;BME280;64758;52.122;5.404;2023-02-15T03:50:21;103037.44;;;-0.72;100.00
75414;BME280;64758;52.122;5.404;2023-02-15T03:53:10;103039.25;;;-0.74;100.00
75414;BME280;64758;52.122;5.404;2023-02-15T03:55:38;103043.66;;;-0.75;100.00
75414;BME280;64758;52.122;5.404;2023-02-15T03:58:04;103038.47;;;-0.76;100.00
75414;BME280;64758;52.122;5.404;2023-02-15T04:00:57;103028.16;;;-0.79;100.00
75414;BME280;64758;52.122;5.404;2023-02-15T04:04:02;103027.31;;;-0.80;100.00
75414;BME280;64758;52.122;5.404;2023-02-15T04:06:29;103032.47;;;-0.78;100.00
75414;BME280;64758;52.122;5.404;2023-02-15T04:08:56;103033.47;;;-0.81;100.00
75414;BME280;64758;52.122;5.404;2023-02-15T04:11:41;103025.56;;;-0.79;100.00
75414;BME280;64758;52.122;5.404;2023-02-15T04:14:07;103027.38;;;-0.81;100.00
75414;BME280;64758;52.122;5.404;2023-02-15T04:16:52;103021.22;;;-0.79;100.00
75414;BME280;64758;52.122;5.404;2023-02-15T04:19:19;103027.31;;;-0.80;100.00
75414;BME280;64758;52.122;5.404;2023-02-15T04:22:04;103035.19;;;-0.81;100.00
75414;BME280;64758;52.122;5.404;2023-02-15T04:24:48;103024.97;;;-0.86;100.00
75414;BME280;64758;52.122;5.404;2023-02-15T04:27:33;103019.88;;;-0.89;100.00
75414;BME280;64758;52.122;5.404;2023-02-15T04:30:00;103032.13;;;-0.91;100.00
75414;BME280;64758;52.122;5.404;2023-02-15T04:32:26;103027.94;;;-0.95;100.00
75414;BME280;64758;52.122;5.404;2023-02-15T04:34:53;103032.16;;;-0.92;100.00
75414;BME280;64758;52.122;5.404;2023-02-15T04:37:20;103024.34;;;-0.92;100.00
75414;BME280;64758;52.122;5.404;2023-02-15T04:39:46;103015.69;;;-0.93;100.00
75414;BME280;64758;52.122;5.404;2023-02-15T04:42:13;103003.47;;;-0.92;100.00
75414;BME280;64758;52.122;5.404;2023-02-15T04:44:39;103016.38;;;-0.89;100.00
75414;BME280;64758;52.122;5.404;2023-02-15T04:47:06;103007.72;;;-0.90;100.00
75414;BME280;64758;52.122;5.404;2023-02-15T04:49:32;103009.69;;;-0.95;100.00
75414;BME280;64758;52.122;5.404;2023-02-15T04:51:59;102997.47;;;-0.94;100.00
75414;BME280;64758;52.122;5.404;2023-02-15T04:54:25;103002.56;;;-0.91;100.00
75414;BME280;64758;52.122;5.404;2023-02-15T04:56:52;102993.16;;;-0.95;100.00
75414;BME280;64758;52.122;5.404;2023-02-15T04:59:18;102997.34;;;-0.91;100.00
75414;BME280;64758;52.122;5.404;2023-02-15T05:01:45;102992.25;;;-0.94;100.00
75414;BME280;64758;52.122;5.404;2023-02-15T05:04:11;102996.75;;;-0.98;100.00
75414;BME280;64758;52.122;5.404;2023-02-15T05:06:38;102999.47;;;-1.01;100.00
75414;BME280;64758;52.122;5.404;2023-02-15T05:09:04;102995.22;;;-1.03;100.00
75414;BME280;64758;52.122;5.404;2023-02-15T05:11:31;102996.25;;;-1.07;100.00
75414;BME280;64758;52.122;5.404;2023-02-15T05:13:57;102985.03;;;-1.09;100.00
75414;BME280;64758;52.122;5.404;2023-02-15T05:16:24;102994.44;;;-1.05;100.00
75414;BME280;64758;52.122;5.404;2023-02-15T05:18:51;102976.31;;;-1.08;100.00
75414;BME280;64758;52.122;5.404;2023-02-15T05:21:18;102986.72;;;-1.08;100.00
75414;BME280;64758;52.122;5.404;2023-02-15T05:23:45;102990.00;;;-1.03;100.00
75414;BME280;64758;52.122;5.404;2023-02-15T05:26:12;102989.28;;;-1.07;100.00
75414;BME280;64758;52.122;5.404;2023-02-15T05:29:00;102984.91;;;-1.06;100.00
75414;BME280;64758;52.122;5.404;2023-02-15T05:31:26;102979.81;;;-1.09;100.00
75414;BME280;64758;52.122;5.404;2023-02-15T05:33:53;102986.69;;;-1.07;100.00
75414;BME280;64758;52.122;5.404;2023-02-15T05:36:20;102982.38;;;-1.08;100.00
75414;BME280;64758;52.122;5.404;2023-02-15T05:38:46;102981.63;;;-1.11;100.00
75414;BME280;64758;52.122;5.404;2023-02-15T05:41:13;102981.53;;;-1.08;100.00
75414;BME280;64758;52.122;5.404;2023-02-15T05:43:40;102987.84;;;-1.14;100.00
75414;BME280;64758;52.122;5.404;2023-02-15T05:46:07;102991.34;;;-1.15;100.00
75414;BME280;64758;52.122;5.404;2023-02-15T05:48:34;102997.50;;;-1.17;100.00
75414;BME280;64758;52.122;5.404;2023-02-15T05:51:09;103000.06;;;-1.16;100.00
75414;BME280;64758;52.122;5.404;2023-02-15T05:53:38;102999.16;;;-1.15;100.00
75414;BME280;64758;52.122;5.404;2023-02-15T05:56:11;102997.41;;;-1.14;100.00
75414;BME280;64758;52.122;5.404;2023-02-15T05:58:39;102997.34;;;-1.13;100.00
75414;BME280;64758;52.122;5.404;2023-02-15T06:01:17;102993.88;;;-1.13;100.00
75414;BME280;64758;52.122;5.404;2023-02-15T06:03:45;102983.66;;;-1.18;100.00
75414;BME280;64758;52.122;5.404;2023-02-15T06:06:12;102980.00;;;-1.14;100.00
75414;BME280;64758;52.122;5.404;2023-02-15T06:08:38;102986.06;;;-1.13;100.00
75414;BME280;64758;52.122;5.404;2023-02-15T06:11:05;102985.03;;;-1.09;100.00
75414;BME280;64758;52.122;5.404;2023-02-15T06:13:33;102987.63;;;-1.09;100.00
75414;BME280;64758;52.122;5.404;2023-02-15T06:16:04;102985.16;;;-1.12;100.00
75414;BME280;64758;52.122;5.404;2023-02-15T06:18:31;102969.63;;;-1.15;99.95
75414;BME280;64758;52.122;5.404;2023-02-15T06:20:57;102983.75;;;-1.21;100.00
75414;BME280;64758;52.122;5.404;2023-02-15T06:23:24;102989.03;;;-1.22;100.00
75414;BME280;64758;52.122;5.404;2023-02-15T06:25:50;102979.47;;;-1.22;100.00
75414;BME280;64758;52.122;5.404;2023-02-15T06:28:17;102980.19;;;-1.18;100.00
75414;BME280;64758;52.122;5.404;2023-02-15T06:30:43;102976.78;;;-1.20;100.00
75414;BME280;64758;52.122;5.404;2023-02-15T06:33:10;102973.16;;;-1.16;99.96
75414;BME280;64758;52.122;5.404;2023-02-15T06:35:37;102973.94;;;-1.14;100.00
75414;BME280;64758;52.122;5.404;2023-02-15T06:38:03;102976.41;;;-1.11;100.00
75414;BME280;64758;52.122;5.404;2023-02-15T06:40:30;102972.91;;;-1.10;100.00
75414;BME280;64758;52.122;5.404;2023-02-15T06:42:56;102966.19;;;-1.16;99.81
75414;BME280;64758;52.122;5.404;2023-02-15T06:45:23;102971.31;;;-1.14;100.00
75414;BME280;64758;52.122;5.404;2023-02-15T06:47:49;102970.41;;;-1.13;100.00
75414;BME280;64758;52.122;5.404;2023-02-15T06:50:16;102984.31;;;-1.13;100.00
75414;BME280;64758;52.122;5.404;2023-02-15T06:52:42;102980.06;;;-1.15;100.00
75414;BME280;64758;52.122;5.404;2023-02-15T06:55:09;102970.38;;;-1.12;100.00
75414;BME280;64758;52.122;5.404;2023-02-15T06:57:35;102973.16;;;-1.16;99.95
75414;BME280;64758;52.122;5.404;2023-02-15T07:00:03;102964.41;;;-1.15;100.00
75414;BME280;64758;52.122;5.404;2023-02-15T07:02:31;102975.88;;;-1.19;100.00
75414;BME280;64758;52.122;5.404;2023-02-15T07:04:57;102974.25;;;-1.22;100.00
75414;BME280;64758;52.122;5.404;2023-02-15T07:07:24;102974.19;;;-1.20;100.00
75414;BME280;64758;52.122;5.404;2023-02-15T07:09:51;102970.50;;;-1.15;100.00
75414;BME280;64758;52.122;5.404;2023-02-15T07:12:17;102976.41;;;-1.11;100.00
75414;BME280;64758;52.122;5.404;2023-02-15T07:15:03;102971.97;;;-1.08;100.00
75414;BME280;64758;52.122;5.404;2023-02-15T07:17:32;102967.34;;;-1.01;100.00
75414;BME280;64758;52.122;5.404;2023-02-15T07:20:07;102962.75;;;-0.95;100.00
75414;BME280;64758;52.122;5.404;2023-02-15T07:22:34;102964.31;;;-0.91;100.00
75414;BME280;64758;52.122;5.404;2023-02-15T07:25:03;102967.59;;;-0.86;100.00
75414;BME280;64758;52.122;5.404;2023-02-15T07:27:31;102966.59;;;-0.83;100.00
75414;BME280;64758;52.122;5.404;2023-02-15T07:29:59;102955.00;;;-0.76;100.00
75414;BME280;64758;52.122;5.404;2023-02-15T07:32:32;102950.41;;;-0.70;100.00
75414;BME280;64758;52.122;5.404;2023-02-15T07:34:59;102949.16;;;-0.61;100.00
75414;BME280;64758;52.122;5.404;2023-02-15T07:37:27;102942.78;;;-0.54;100.00
75414;BME280;64758;52.122;5.404;2023-02-15T07:39:53;102946.97;;;-0.50;100.00
75414;BME280;64758;52.122;5.404;2023-02-15T07:42:20;102941.69;;;-0.49;100.00
75414;BME280;64758;52.122;5.404;2023-02-15T07:44:48;102937.25;;;-0.47;100.00
75414;BME280;64758;52.122;5.404;2023-02-15T07:47:14;102937.03;;;-0.42;100.00
75414;BME280;64758;52.122;5.404;2023-02-15T07:49:41;102930.59;;;-0.34;100.00
75414;BME280;64758;52.122;5.404;2023-02-15T07:52:08;102938.03;;;-0.25;100.00
75414;BME280;64758;52.122;5.404;2023-02-15T07:54:34;102929.22;;;-0.22;100.00
75414;BME280;64758;52.122;5.404;2023-02-15T07:57:01;102928.81;;;-0.13;100.00
75414;BME280;64758;52.122;5.404;2023-02-15T07:59:28;102921.44;;;-0.04;100.00
75414;BME280;64758;52.122;5.404;2023-02-15T08:01:55;102921.09;;;0.03;100.00
75414;BME280;64758;52.122;5.404;2023-02-15T08:04:23;102928.69;;;0.08;100.00
75414;BME280;64758;52.122;5.404;2023-02-15T08:06:53;102924.19;;;0.11;100.00
75414;BME280;64758;52.122;5.404;2023-02-15T08:09:21;102917.06;;;0.15;100.00
75414;BME280;64758;52.122;5.404;2023-02-15T08:11:48;102916.09;;;0.17;100.00
75414;BME280;64758;52.122;5.404;2023-02-15T08:14:19;102908.13;;;0.20;100.00
75414;BME280;64758;52.122;5.404;2023-02-15T08:16:47;102913.84;;;0.28;100.00
75414;BME280;64758;52.122;5.404;2023-02-15T08:19:21;102912.63;;;0.35;100.00
75414;BME280;64758;52.122;5.404;2023-02-15T08:21:50;102908.81;;;0.42;100.00
75414;BME280;64758;52.122;5.404;2023-02-15T08:24:18;102915.97;;;0.57;100.00
75414;BME280;64758;52.122;5.404;2023-02-15T08:26:46;102912.91;;;0.66;100.00
75414;BME280;64758;52.122;5.404;2023-02-15T08:29:15;102912.97;;;0.83;100.00
75414;BME280;64758;52.122;5.404;2023-02-15T08:31:43;102895.13;;;0.91;100.00
75414;BME280;64758;52.122;5.404;2023-02-15T08:34:11;102900.53;;;1.05;100.00
75414;BME280;64758;52.122;5.404;2023-02-15T08:36:39;102899.78;;;1.20;100.00
75414;BME280;64758;52.122;5.404;2023-02-15T08:39:06;102893.91;;;1.32;100.00
75414;BME280;64758;52.122;5.404;2023-02-15T08:41:35;102902.78;;;1.46;100.00
75414;BME280;64758;52.122;5.404;2023-02-15T08:44:05;102896.91;;;1.58;100.00
75414;BME280;64758;52.122;5.404;2023-02-15T08:46:37;102898.91;;;1.70;100.00
75414;BME280;64758;52.122;5.404;2023-02-15T08:49:04;102895.38;;;1.87;100.00
75414;BME280;64758;52.122;5.404;2023-02-15T08:51:33;102885.88;;;2.01;100.00
75414;BME280;64758;52.122;5.404;2023-02-15T08:54:04;102880.66;;;2.17;100.00
75414;BME280;64758;52.122;5.404;2023-02-15T08:56:36;102875.63;;;2.29;100.00
75414;BME280;64758;52.122;5.404;2023-02-15T08:59:04;102882.72;;;2.43;100.00
75414;BME280;64758;52.122;5.404;2023-02-15T09:01:32;102880.34;;;2.53;100.00
75414;BME280;64758;52.122;5.404;2023-02-15T09:04:02;102877.78;;;2.67;100.00
75414;BME280;64758;52.122;5.404;2023-02-15T09:06:30;102873.56;;;2.80;100.00
75414;BME280;64758;52.122;5.404;2023-02-15T09:08:57;102871.75;;;2.96;100.00
75414;BME280;64758;52.122;5.404;2023-02-15T09:11:28;102865.22;;;3.03;100.00
75414;BME280;64758;52.122;5.404;2023-02-15T09:14:08;102869.06;;;3.12;100.00
75414;BME280;64758;52.122;5.404;2023-02-15T09:16:37;102862.47;;;3.20;100.00
75414;BME280;64758;52.122;5.404;2023-02-15T09:19:05;102859.13;;;3.32;100.00
75414;BME280;64758;52.122;5.404;2023-02-15T09:21:33;102855.84;;;3.43;100.00
75414;BME280;64758;52.122;5.404;2023-02-15T09:24:03;102855.97;;;3.55;100.00
75414;BME280;64758;52.122;5.404;2023-02-15T09:26:33;102864.06;;;3.66;100.00
75414;BME280;64758;52.122;5.404;2023-02-15T09:29:01;102862.91;;;3.84;100.00
75414;BME280;64758;52.122;5.404;2023-02-15T09:31:32;102849.75;;;3.98;100.00
75414;BME280;64758;52.122;5.404;2023-02-15T09:34:00;102848.44;;;4.05;100.00
75414;BME280;64758;52.122;5.404;2023-02-15T09:36:38;102852.75;;;4.20;100.00
75414;BME280;64758;52.122;5.404;2023-02-15T10:07:27;102849.19;;;5.51;94.56
75414;BME280;64758;52.122;5.404;2023-02-15T10:23:42;102852.13;;;6.22;90.98
75414;BME280;64758;52.122;5.404;2023-02-15T10:28:49;102851.47;;;6.54;90.01
75414;BME280;64758;52.122;5.404;2023-02-15T10:31:37;102857.91;;;6.62;88.34
75414;BME280;64758;52.122;5.404;2023-02-15T10:39:46;102854.25;;;6.99;86.81
75414;BME280;64758;52.122;5.404;2023-02-15T10:42:28;102857.94;;;7.20;86.19
75414;BME280;64758;52.122;5.404;2023-02-15T10:48:13;102859.31;;;7.48;84.92
75414;BME280;64758;52.122;5.404;2023-02-15T10:50:50;102843.63;;;7.57;83.69
75414;BME280;64758;52.122;5.404;2023-02-15T10:56:20;102839.53;;;7.86;83.26
75414;BME280;64758;52.122;5.404;2023-02-15T11:01:51;102833.44;;;8.18;82.76
75414;BME280;64758;52.122;5.404;2023-02-15T11:07:22;102826.44;;;8.39;81.15
75414;BME280;64758;52.122;5.404;2023-02-15T11:10:00;102826.97;;;8.54;80.47
75414;BME280;64758;52.122;5.404;2023-02-15T11:12:28;102827.91;;;8.64;80.28
75414;BME280;64758;52.122;5.404;2023-02-15T11:18:09;102820.59;;;8.87;79.29
75414;BME280;64758;52.122;5.404;2023-02-15T11:23:23;102815.00;;;9.01;77.42
75414;BME280;64758;52.122;5.404;2023-02-15T11:26:02;102804.78;;;8.97;78.27
75414;BME280;64758;52.122;5.404;2023-02-15T11:28:33;102798.69;;;9.06;77.93
75414;BME280;64758;52.122;5.404;2023-02-15T11:31:14;102796.31;;;9.03;77.50
75414;BME280;64758;52.122;5.404;2023-02-15T11:33:46;102791.47;;;9.08;77.98
75414;BME280;64758;52.122;5.404;2023-02-15T11:36:18;102791.41;;;9.19;76.54
75414;BME280;64758;52.122;5.404;2023-02-15T11:38:49;102775.41;;;9.30;76.63
75414;BME280;64758;52.122;5.404;2023-02-15T11:41:25;102783.63;;;9.47;77.01
75414;BME280;64758;52.122;5.404;2023-02-15T11:44:13;102769.59;;;9.66;75.09
75414;BME280;64758;52.122;5.404;2023-02-15T11:46:42;102762.00;;;9.82;75.05
75414;BME280;64758;52.122;5.404;2023-02-15T11:49:27;102747.56;;;10.05;74.63
75414;BME280;64758;52.122;5.404;2023-02-15T11:51:55;102743.13;;;10.14;73.74
75414;BME280;64758;52.122;5.404;2023-02-15T11:54:28;102736.13;;;10.13;72.95
75414;BME280;64758;52.122;5.404;2023-02-15T11:57:32;102738.81;;;10.32;73.92
75414;BME280;64758;52.122;5.404;2023-02-15T12:00:06;102727.34;;;10.51;72.75
75414;BME280;64758;52.122;5.404;2023-02-15T12:02:38;102724.03;;;10.58;70.77
75414;BME280;64758;52.122;5.404;2023-02-15T12:05:12;102725.84;;;10.67;71.36
75414;BME280;64758;52.122;5.404;2023-02-15T12:07:48;102729.19;;;10.69;70.41
75414;BME280;64758;52.122;5.404;2023-02-15T12:10:23;102740.09;;;10.57;70.54
75414;BME280;64758;52.122;5.404;2023-02-15T12:13:18;102729.31;;;10.68;71.80
75414;BME280;64758;52.122;5.404;2023-02-15T12:15:50;102719.94;;;10.83;70.19
75414;BME280;64758;52.122;5.404;2023-02-15T12:21:13;102723.16;;;10.86;70.04
75414;BME280;64758;52.122;5.404;2023-02-15T12:26:10;102717.13;;;10.94;69.04
75414;BME280;64758;52.122;5.404;2023-02-15T12:28:49;102716.28;;;10.93;69.73
75414;BME280;64758;52.122;5.404;2023-02-15T12:33:55;102710.59;;;11.34;69.24
75414;BME280;64758;52.122;5.404;2023-02-15T12:36:32;102710.41;;;11.45;68.72
75414;BME280;64758;52.122;5.404;2023-02-15T12:44:30;102685.97;;;11.86;67.53
75414;BME280;64758;52.122;5.404;2023-02-15T12:49:32;102690.72;;;11.92;66.07
75414;BME280;64758;52.122;5.404;2023-02-15T12:54:48;102676.72;;;11.90;66.10
75414;BME280;64758;52.122;5.404;2023-02-15T12:57:24;102678.69;;;11.88;66.38
75414;BME280;64758;52.122;5.404;2023-02-15T13:03:03;102678.09;;;11.67;67.61
75414;BME280;64758;52.122;5.404;2023-02-15T13:05:41;102681.66;;;11.58;68.01
75414;BME280;64758;52.122;5.404;2023-02-15T13:08:20;102688.84;;;11.38;68.47
75414;BME280;64758;52.122;5.404;2023-02-15T13:13:24;102669.25;;;11.39;69.25
75414;BME280;64758;52.122;5.404;2023-02-15T13:15:54;102660.16;;;11.42;69.24
75414;BME280;64758;52.122;5.404;2023-02-15T13:18:43;102660.34;;;11.58;69.53
75414;BME280;64758;52.122;5.404;2023-02-15T13:21:14;102658.44;;;11.77;69.75
75414;BME280;64758;52.122;5.404;2023-02-15T13:23:46;102653.03;;;11.87;68.61
75414;BME280;64758;52.122;5.404;2023-02-15T13:26:18;102651.06;;;11.89;68.36
75414;BME280;64758;52.122;5.404;2023-02-15T13:28:48;102657.16;;;11.81;67.43
75414;BME280;64758;52.122;5.404;2023-02-15T13:31:21;102654.63;;;11.80;68.21
75414;BME280;64758;52.122;5.404;2023-02-15T13:33:53;102659.13;;;11.79;67.89
75414;BME280;64758;52.122;5.404;2023-02-15T13:36:33;102662.91;;;11.77;67.81
75414;BME280;64758;52.122;5.404;2023-02-15T13:39:23;102656.81;;;11.67;68.61
75414;BME280;64758;52.122;5.404;2023-02-15T13:42:05;102657.50;;;11.69;68.53
75414;BME280;64758;52.122;5.404;2023-02-15T13:44:59;102651.19;;;11.70;69.14
75414;BME280;64758;52.122;5.404;2023-02-15T13:47:43;102646.84;;;11.69;68.95
75414;BME280;64758;52.122;5.404;2023-02-15T13:53:02;102642.59;;;11.76;69.96
75414;BME280;64758;52.122;5.404;2023-02-15T13:55:51;102646.63;;;11.80;68.85
75414;BME280;64758;52.122;5.404;2023-02-15T14:01:28;102641.63;;;11.77;68.56
75414;BME280;64758;52.122;5.404;2023-02-15T14:07:09;102634.41;;;11.87;68.32
75414;BME280;64758;52.122;5.404;2023-02-15T14:15:48;102641.81;;;11.66;67.11
75414;BME280;64758;52.122;5.404;2023-02-15T14:18:41;102633.44;;;11.61;67.20
75414;BME280;64758;52.122;5.404;2023-02-15T14:26:50;102641.94;;;11.47;66.78
75414;BME280;64758;52.122;5.404;2023-02-15T14:32:04;102627.53;;;11.40;67.97
75414;BME280;64758;52.122;5.404;2023-02-15T14:34:56;102630.63;;;11.36;68.17
75414;BME280;64758;52.122;5.404;2023-02-15T14:40:47;102640.28;;;11.37;68.27
75414;BME280;64758;52.122;5.404;2023-02-15T14:43:55;102633.75;;;11.31;67.84
75414;BME280;64758;52.122;5.404;2023-02-15T14:49:06;102627.63;;;11.21;68.13
75414;BME280;64758;52.122;5.404;2023-02-15T14:54:30;102619.75;;;11.29;69.39
75414;BME280;64758;52.122;5.404;2023-02-15T15:02:23;102619.94;;;11.09;69.41
75414;BME280;64758;52.122;5.404;2023-02-15T15:07:44;102630.06;;;11.05;69.70
75414;BME280;64758;52.122;5.404;2023-02-15T15:15:44;102623.34;;;11.01;69.94
75414;BME280;64758;52.122;5.404;2023-02-15T15:18:43;102628.69;;;11.01;70.42
75414;BME280;64758;52.122;5.404;2023-02-15T15:21:10;102627.56;;;10.94;69.92
75414;BME280;64758;52.122;5.404;2023-02-15T15:23:42;102633.44;;;10.98;70.01
75414;BME280;64758;52.122;5.404;2023-02-15T15:26:25;102632.72;;;10.96;70.25
75414;BME280;64758;52.122;5.404;2023-02-15T15:31:30;102623.94;;;10.95;69.93
75414;BME280;64758;52.122;5.404;2023-02-15T15:43:15;102620.06;;;10.80;69.96
75414;BME280;64758;52.122;5.404;2023-02-15T15:48:32;102619.94;;;10.72;71.06
75414;BME280;64758;52.122;5.404;2023-02-15T15:51:05;102624.84;;;10.67;71.14
75414;BME280;64758;52.122;5.404;2023-02-15T15:53:38;102621.91;;;10.61;71.35
75414;BME280;64758;52.122;5.404;2023-02-15T15:56:13;102622.19;;;10.58;71.23
75414;BME280;64758;52.122;5.404;2023-02-15T15:58:45;102618.16;;;10.54;71.78
75414;BME280;64758;52.122;5.404;2023-02-15T16:01:14;102635.22;;;10.51;72.10
75414;BME280;64758;52.122;5.404;2023-02-15T16:03:51;102625.28;;;10.44;71.22
75414;BME280;64758;52.122;5.404;2023-02-15T16:06:33;102619.56;;;10.39;71.53
75414;BME280;64758;52.122;5.404;2023-02-15T16:09:17;102613.44;;;10.38;72.35
75414;BME280;64758;52.122;5.404;2023-02-15T16:11:50;102605.75;;;10.35;72.77